createdAt,value
2018-09-02T00:01:35.839Z,70.80
2018-09-02T00:04:04.050Z,71.10
2018-09-02T00:06:32.510Z,71.90
2018-09-02T00:09:00.787Z,71.90
2018-09-02T00:11:29.162Z,72.00
2018-09-02T00:13:57.340Z,72.30
2018-09-02T00:16:25.648Z,72.00
2018-09-02T00:18:53.851Z,72.00
2018-09-02T00:21:22.060Z,71.90
2018-09-02T00:23:50.310Z,71.80
2018-09-02T00:26:18.497Z,71.60
2018-09-02T00:28:46.676Z,71.60
2018-09-02T00:31:14.974Z,71.50
2018-09-02T00:33:43.208Z,71.60
2018-09-02T00:36:11.384Z,71.80
2018-09-02T00:38:39.584Z,71.70
2018-09-02T00:41:07.797Z,71.80
2018-09-02T00:43:35.999Z,71.90
2018-09-02T00:46:04.235Z,71.90
2018-09-02T00:48:32.487Z,71.60
2018-09-02T00:51:00.888Z,71.20
2018-09-02T00:53:29.265Z,70.80
2018-09-02T00:55:57.459Z,70.40
2018-09-02T00:58:25.851Z,70.00
2018-09-02T01:00:54.037Z,69.50
2018-09-02T01:03:22.403Z,69.30
2018-09-02T01:05:51.340Z,69.00
2018-09-02T01:08:19.567Z,69.00
2018-09-02T01:10:48.841Z,68.90
2018-09-02T01:13:17.365Z,69.00
2018-09-02T01:15:46.887Z,68.90
2018-09-02T01:18:15.343Z,68.90
2018-09-02T01:20:43.543Z,69.00
2018-09-02T01:23:11.833Z,68.90
2018-09-02T01:25:40.716Z,68.90
2018-09-02T01:28:09.353Z,68.90
2018-09-02T01:30:38.219Z,68.90
2018-09-02T01:33:06.423Z,68.90
2018-09-02T01:35:35.147Z,68.90
2018-09-02T01:38:05.028Z,68.90
2018-09-02T01:40:34.227Z,68.90
2018-09-02T01:43:02.948Z,68.80
2018-09-02T01:45:31.298Z,68.90
2018-09-02T01:47:59.496Z,68.90
2018-09-02T01:50:27.916Z,68.90
2018-09-02T01:52:56.098Z,69.00
2018-09-02T01:55:24.448Z,68.90
2018-09-02T01:57:52.759Z,68.70
2018-09-02T02:00:20.942Z,68.70
2018-09-02T02:02:49.963Z,68.50
2018-09-02T02:05:18.164Z,68.20
2018-09-02T02:07:46.369Z,68.00
2018-09-02T02:10:14.736Z,67.90
2018-09-02T02:12:43.031Z,67.70
2018-09-02T02:15:11.420Z,67.50
2018-09-02T02:17:39.992Z,67.40
2018-09-02T02:20:08.283Z,67.50
2018-09-02T02:22:36.791Z,67.40
2018-09-02T02:25:05.020Z,67.40
2018-09-02T02:27:33.212Z,67.30
2018-09-02T02:30:01.657Z,67.30
2018-09-02T02:32:29.852Z,67.30
2018-09-02T02:34:58.240Z,67.40
2018-09-02T02:37:26.431Z,67.40
2018-09-02T02:39:55.015Z,67.40
2018-09-02T02:42:23.208Z,67.50
2018-09-02T02:44:51.406Z,67.60
2018-09-02T02:47:19.740Z,67.70
2018-09-02T02:49:48.008Z,67.80
2018-09-02T02:52:16.671Z,67.90
2018-09-02T02:54:44.944Z,67.80
2018-09-02T02:57:13.156Z,67.80
2018-09-02T02:59:41.532Z,67.80
2018-09-02T03:02:09.828Z,67.80
2018-09-02T03:04:40.609Z,67.70
2018-09-02T03:07:09.099Z,67.70
2018-09-02T03:09:37.308Z,67.60
2018-09-02T03:12:05.577Z,67.60
2018-09-02T03:14:33.818Z,68.40
2018-09-02T03:17:02.041Z,67.70
2018-09-02T03:19:30.247Z,67.60
2018-09-02T03:21:58.480Z,67.50
2018-09-02T03:24:26.663Z,67.40
2018-09-02T03:26:54.951Z,67.20
2018-09-02T03:29:23.151Z,67.10
2018-09-02T03:31:51.365Z,66.90
2018-09-02T03:34:19.645Z,66.60
2018-09-02T03:36:48.006Z,66.60
2018-09-02T03:39:16.201Z,66.40
2018-09-02T03:41:44.438Z,66.30
2018-09-02T03:44:12.632Z,66.20
2018-09-02T03:46:40.820Z,66.20
2018-09-02T03:49:09.053Z,66.30
2018-09-02T03:51:37.309Z,66.40
2018-09-02T03:54:06.208Z,66.40
2018-09-02T03:56:34.679Z,66.50
2018-09-02T03:59:02.916Z,66.60
2018-09-02T04:01:31.272Z,66.70
2018-09-02T04:03:59.454Z,66.70
2018-09-02T04:06:27.641Z,66.90
2018-09-02T04:08:55.831Z,67.00
2018-09-02T04:11:24.118Z,67.90
2018-09-02T04:13:52.234Z,67.30
2018-09-02T04:16:20.407Z,67.30
2018-09-02T04:18:48.622Z,67.40
2018-09-02T04:21:16.907Z,67.50
2018-09-02T04:23:45.164Z,67.60
2018-09-02T04:26:13.348Z,67.60
2018-09-02T04:28:41.568Z,67.70
2018-09-02T04:31:09.743Z,67.80
2018-09-02T04:33:37.997Z,67.70
2018-09-02T04:36:06.223Z,67.80
2018-09-02T04:38:34.451Z,67.80
2018-09-02T04:41:02.652Z,67.90
2018-09-02T04:43:30.888Z,67.90
2018-09-02T04:45:59.093Z,68.20
2018-09-02T04:48:27.308Z,68.30
2018-09-02T04:50:55.508Z,68.60
2018-09-02T04:53:23.726Z,68.70
2018-09-02T04:55:51.935Z,68.80
2018-09-02T04:58:20.156Z,68.80
2018-09-02T05:00:48.356Z,68.90
2018-09-02T05:03:16.575Z,69.10
2018-09-02T05:05:44.784Z,69.10
2018-09-02T05:08:13.172Z,69.10
2018-09-02T05:10:41.371Z,69.20
2018-09-02T05:13:09.955Z,69.20
2018-09-02T05:15:38.344Z,69.30
2018-09-02T05:18:06.539Z,69.30
2018-09-02T05:20:34.733Z,69.50
2018-09-02T05:23:03.112Z,69.70
2018-09-02T05:25:31.340Z,70.00
2018-09-02T05:27:59.525Z,70.20
2018-09-02T05:30:28.179Z,70.70
2018-09-02T05:32:56.453Z,71.10
2018-09-02T05:35:24.639Z,72.00
2018-09-02T05:37:53.252Z,74.00
2018-09-02T05:40:21.456Z,76.10
2018-09-02T05:42:50.135Z,78.20
2018-09-02T05:45:18.448Z,80.10
2018-09-02T05:47:46.649Z,81.50
2018-09-02T05:50:15.107Z,82.50
2018-09-02T05:52:43.481Z,83.70
2018-09-02T05:55:12.096Z,84.20
2018-09-02T05:57:40.326Z,85.10
2018-09-02T06:00:08.516Z,85.50
2018-09-02T06:02:37.385Z,85.90
2018-09-02T06:05:05.568Z,86.80
2018-09-02T06:07:33.808Z,87.10
2018-09-02T06:10:02.239Z,88.00
2018-09-02T06:12:30.531Z,88.80
2018-09-02T06:14:58.748Z,89.30
2018-09-02T06:17:27.054Z,89.70
2018-09-02T06:19:55.168Z,90.00
2018-09-02T06:22:23.363Z,90.10
2018-09-02T06:24:51.573Z,90.20
2018-09-02T06:27:19.783Z,90.30
2018-09-02T06:29:48.032Z,90.60
2018-09-02T06:32:16.228Z,90.90
2018-09-02T06:34:44.420Z,91.20
2018-09-02T06:37:12.708Z,91.40
2018-09-02T06:39:40.981Z,91.60
2018-09-02T06:42:09.104Z,91.70
2018-09-02T06:44:37.337Z,91.70
2018-09-02T06:47:05.559Z,91.80
2018-09-02T06:49:33.756Z,91.90
2018-09-02T06:52:02.844Z,92.00
2018-09-02T06:54:31.120Z,92.00
2018-09-02T06:56:59.346Z,92.00
2018-09-02T06:59:27.539Z,92.00
2018-09-02T07:01:55.761Z,92.10
2018-09-02T07:04:23.964Z,91.90
2018-09-02T07:06:52.291Z,92.00
2018-09-02T07:09:20.476Z,91.90
2018-09-02T07:11:48.724Z,91.80
2018-09-02T07:14:17.226Z,91.70
2018-09-02T07:16:45.383Z,91.50
2018-09-02T07:19:13.600Z,91.30
2018-09-02T07:21:41.951Z,91.10
2018-09-02T07:24:10.167Z,90.70
2018-09-02T07:26:38.645Z,90.30
2018-09-02T07:29:06.879Z,89.70
2018-09-02T07:31:35.099Z,89.10
2018-09-02T07:34:03.288Z,88.90
2018-09-02T07:36:31.500Z,89.30
2018-09-02T07:38:59.779Z,88.90
2018-09-02T07:41:27.984Z,88.40
2018-09-02T07:43:56.346Z,88.40
2018-09-02T07:46:24.512Z,88.20
2018-09-02T07:48:52.720Z,87.60
2018-09-02T07:51:20.952Z,86.70
2018-09-02T07:53:49.154Z,86.60
2018-09-02T07:56:17.539Z,86.30
2018-09-02T07:58:45.761Z,86.30
2018-09-02T08:01:14.004Z,86.50
2018-09-02T08:03:42.204Z,86.70
2018-09-02T08:06:10.396Z,87.10
2018-09-02T08:08:38.615Z,87.00
2018-09-02T08:11:06.847Z,86.90
2018-09-02T08:13:35.077Z,87.50
2018-09-02T08:16:03.319Z,88.10
2018-09-02T08:18:31.555Z,87.50
2018-09-02T08:21:00.421Z,86.90
2018-09-02T08:23:28.613Z,86.60
2018-09-02T08:25:56.831Z,86.60
2018-09-02T08:28:25.031Z,86.90
2018-09-02T08:30:53.296Z,87.60
2018-09-02T08:33:21.488Z,87.80
2018-09-02T08:35:49.760Z,88.30
2018-09-02T08:38:17.980Z,88.10
2018-09-02T08:40:46.201Z,88.30
2018-09-02T08:43:14.391Z,89.50
2018-09-02T08:45:42.616Z,89.00
2018-09-02T08:48:10.844Z,88.70
2018-09-02T08:50:39.044Z,88.60
2018-09-02T08:53:07.256Z,88.40
2018-09-02T08:55:35.455Z,88.60
2018-09-02T08:58:03.672Z,89.00
2018-09-02T09:00:31.919Z,89.10
2018-09-02T09:03:00.164Z,89.30
2018-09-02T09:05:28.359Z,89.30
2018-09-02T09:07:56.616Z,89.20
2018-09-02T09:10:24.744Z,88.90
2018-09-02T09:12:53.067Z,88.30
2018-09-02T09:15:21.260Z,88.30
2018-09-02T09:17:49.472Z,88.50
2018-09-02T09:20:17.655Z,89.10
2018-09-02T09:22:45.930Z,89.30
2018-09-02T09:25:14.235Z,89.90
2018-09-02T09:27:42.451Z,89.60
2018-09-02T09:30:10.904Z,88.90
2018-09-02T09:32:39.733Z,88.40
2018-09-02T09:35:07.980Z,88.20
2018-09-02T09:37:36.293Z,89.10
2018-09-02T09:40:04.520Z,88.00
2018-09-02T09:42:32.824Z,88.60
2018-09-02T09:45:01.056Z,88.30
2018-09-02T09:47:29.271Z,89.00
2018-09-02T09:49:57.523Z,90.10
2018-09-02T09:52:25.744Z,90.00
2018-09-02T09:54:53.964Z,89.60
2018-09-02T09:57:22.172Z,89.20
2018-09-02T09:59:50.405Z,88.80
2018-09-02T10:02:18.620Z,88.10
2018-09-02T10:04:46.845Z,87.90
2018-09-02T10:07:15.081Z,87.60
2018-09-02T10:09:43.296Z,86.90
2018-09-02T10:12:11.549Z,86.60
2018-09-02T10:14:39.765Z,86.00
2018-09-02T10:17:07.991Z,86.10
2018-09-02T10:19:36.213Z,85.90
2018-09-02T10:22:04.461Z,85.90
2018-09-02T10:24:32.711Z,85.90
2018-09-02T10:27:00.955Z,86.30
2018-09-02T10:29:29.272Z,86.50
2018-09-02T10:31:57.473Z,86.80
2018-09-02T10:34:25.727Z,86.90
2018-09-02T10:36:53.947Z,87.00
2018-09-02T10:39:22.252Z,86.40
2018-09-02T10:41:51.339Z,86.60
2018-09-02T10:44:19.531Z,86.30
2018-09-02T10:46:47.760Z,87.10
2018-09-02T10:49:15.972Z,86.20
2018-09-02T10:51:44.184Z,85.50
2018-09-02T10:54:12.819Z,85.80
2018-09-02T10:56:41.056Z,86.20
2018-09-02T10:59:09.265Z,86.30
2018-09-02T11:01:37.864Z,87.10
2018-09-02T11:04:06.259Z,87.30
2018-09-02T11:06:34.503Z,87.60
2018-09-02T11:09:03.815Z,88.10
2018-09-02T11:11:32.073Z,88.50
2018-09-02T11:14:00.725Z,88.70
2018-09-02T11:16:29.436Z,89.20
2018-09-02T11:18:57.644Z,89.40
2018-09-02T11:21:26.211Z,89.50
2018-09-02T11:23:54.495Z,89.60
2018-09-02T11:26:23.186Z,90.00
2018-09-02T11:28:51.415Z,89.90
2018-09-02T11:31:19.667Z,90.10
2018-09-02T11:33:48.068Z,90.30
2018-09-02T11:36:16.274Z,90.50
2018-09-02T11:38:44.529Z,90.60
2018-09-02T11:41:13.556Z,90.70
2018-09-02T11:43:41.759Z,90.70
2018-09-02T11:46:09.952Z,90.70
2018-09-02T11:48:38.303Z,90.80
2018-09-02T11:51:06.655Z,90.80
2018-09-02T11:53:35.205Z,90.80
2018-09-02T11:56:03.422Z,91.10
2018-09-02T11:58:31.731Z,90.80
2018-09-02T12:01:00.383Z,90.80
2018-09-02T12:03:28.589Z,90.90
2018-09-02T12:05:56.784Z,90.90
2018-09-02T12:08:25.139Z,91.00
2018-09-02T12:10:53.364Z,90.90
2018-09-02T12:13:22.068Z,90.90
2018-09-02T12:15:50.282Z,91.00
2018-09-02T12:18:18.487Z,91.00
2018-09-02T12:20:46.883Z,91.10
2018-09-02T12:23:15.218Z,91.20
2018-09-02T12:25:43.569Z,91.30
2018-09-02T12:28:12.148Z,91.40
2018-09-02T12:30:40.335Z,91.50
2018-09-02T12:33:08.560Z,91.40
2018-09-02T12:35:37.028Z,91.30
2018-09-02T12:38:05.232Z,91.40
2018-09-02T12:40:33.631Z,91.50
2018-09-02T12:43:02.220Z,91.40
2018-09-02T12:45:30.619Z,91.50
2018-09-02T12:47:59.129Z,91.50
2018-09-02T12:50:27.238Z,91.50
2018-09-02T12:52:55.956Z,91.50
2018-09-02T12:55:24.194Z,91.50
2018-09-02T12:57:52.359Z,91.50
2018-09-02T13:00:20.770Z,91.60
2018-09-02T13:02:48.999Z,91.60
2018-09-02T13:05:17.519Z,91.70
2018-09-02T13:07:45.799Z,91.70
2018-09-02T13:10:14.009Z,91.70
2018-09-02T13:12:42.560Z,91.60
2018-09-02T13:15:10.764Z,91.70
2018-09-02T13:17:39.023Z,91.70
2018-09-02T13:20:07.460Z,91.70
2018-09-02T13:22:35.672Z,91.70
2018-09-02T13:25:04.307Z,91.80
2018-09-02T13:27:32.676Z,92.30
2018-09-02T13:30:01.085Z,92.00
2018-09-02T13:32:29.295Z,92.00
2018-09-02T13:34:57.805Z,92.20
2018-09-02T13:37:26.008Z,92.20
2018-09-02T13:39:54.285Z,92.30
2018-09-02T13:42:22.712Z,92.40
2018-09-02T13:44:51.092Z,92.50
2018-09-02T13:47:19.332Z,92.50
2018-09-02T13:49:47.544Z,92.50
2018-09-02T13:52:15.764Z,92.50
2018-09-02T13:54:44.057Z,92.50
2018-09-02T13:57:12.187Z,92.50
2018-09-02T13:59:40.501Z,92.40
2018-09-02T14:02:08.684Z,92.40
2018-09-02T14:04:36.880Z,92.40
2018-09-02T14:07:05.136Z,92.40
2018-09-02T14:09:33.433Z,92.50
2018-09-02T14:12:01.622Z,92.40
2018-09-02T14:14:30.168Z,92.40
2018-09-02T14:16:58.501Z,92.40
2018-09-02T14:19:26.711Z,92.40
2018-09-02T14:21:54.911Z,92.30
2018-09-02T14:24:23.153Z,92.30
2018-09-02T14:26:51.364Z,92.30
2018-09-02T14:29:19.608Z,92.30
2018-09-02T14:31:47.919Z,92.30
2018-09-02T14:34:16.092Z,92.30
2018-09-02T14:36:44.356Z,92.30
2018-09-02T14:39:13.888Z,92.30
2018-09-02T14:41:42.416Z,92.30
2018-09-02T14:44:10.636Z,92.30
2018-09-02T14:46:39.453Z,92.30
2018-09-02T14:49:08.167Z,92.30
2018-09-02T14:51:36.400Z,92.40
2018-09-02T14:54:04.673Z,92.40
2018-09-02T14:56:32.970Z,92.40
2018-09-02T14:59:01.230Z,92.40
2018-09-02T15:01:35.954Z,92.50
2018-09-02T15:04:04.188Z,92.40
2018-09-02T15:06:32.856Z,92.40
2018-09-02T15:09:01.179Z,92.30
2018-09-02T15:11:29.459Z,92.40
2018-09-02T15:13:57.652Z,92.50
2018-09-02T15:16:25.907Z,92.70
2018-09-02T15:18:54.108Z,92.80
2018-09-02T15:21:22.522Z,93.00
2018-09-02T15:23:50.629Z,93.20
2018-09-02T15:26:18.884Z,93.30
2018-09-02T15:28:47.096Z,93.40
2018-09-02T15:31:15.353Z,93.50
2018-09-02T15:33:43.600Z,93.50
2018-09-02T15:36:11.844Z,93.70
2018-09-02T15:38:40.820Z,93.80
2018-09-02T15:41:09.075Z,94.10
2018-09-02T15:43:37.308Z,94.30
2018-09-02T15:46:05.597Z,94.40
2018-09-02T15:48:33.851Z,94.60
2018-09-02T15:51:02.172Z,94.80
2018-09-02T15:53:30.380Z,95.00
2018-09-02T15:55:58.640Z,95.10
2018-09-02T15:58:26.856Z,95.30
2018-09-02T16:00:55.185Z,95.40
2018-09-02T16:03:23.455Z,95.40
2018-09-02T16:05:51.676Z,95.50
2018-09-02T16:08:19.875Z,95.60
2018-09-02T16:10:48.145Z,95.60
2018-09-02T16:13:16.463Z,95.70
2018-09-02T16:15:44.752Z,95.80
2018-09-02T16:18:12.962Z,95.90
2018-09-02T16:20:41.284Z,96.00
2018-09-02T16:23:09.479Z,96.00
2018-09-02T16:25:37.704Z,96.00
2018-09-02T16:28:06.000Z,96.10
2018-09-02T16:30:34.200Z,96.00
2018-09-02T16:33:02.442Z,96.10
2018-09-02T16:35:30.657Z,96.10
2018-09-02T16:37:59.050Z,96.20
2018-09-02T16:40:27.251Z,96.10
2018-09-02T16:42:55.478Z,96.20
2018-09-02T16:45:23.764Z,96.20
2018-09-02T16:47:52.002Z,96.30
2018-09-02T16:50:20.201Z,96.30
2018-09-02T16:52:48.529Z,96.30
2018-09-02T16:55:16.688Z,96.30
2018-09-02T16:57:44.902Z,96.40
2018-09-02T17:00:13.140Z,96.40
2018-09-02T17:02:41.346Z,96.40
2018-09-02T17:05:12.400Z,96.40
2018-09-02T17:07:40.630Z,96.50
2018-09-02T17:10:08.885Z,96.50
2018-09-02T17:12:37.280Z,96.50
2018-09-02T17:15:05.388Z,96.60
2018-09-02T17:17:33.664Z,96.60
2018-09-02T17:20:01.912Z,96.80
2018-09-02T17:22:30.189Z,96.80
2018-09-02T17:24:58.442Z,96.80
2018-09-02T17:27:26.695Z,96.80
2018-09-02T17:29:54.940Z,96.90
2018-09-02T17:32:24.044Z,97.00
2018-09-02T17:34:52.349Z,97.10
2018-09-02T17:37:20.628Z,97.20
2018-09-02T17:39:48.844Z,97.30
2018-09-02T17:42:17.224Z,97.40
2018-09-02T17:44:46.044Z,97.50
2018-09-02T17:47:14.256Z,97.50
2018-09-02T17:49:42.528Z,97.50
2018-09-02T17:52:10.901Z,97.60
2018-09-02T17:54:39.120Z,97.60
2018-09-02T17:57:07.593Z,97.70
2018-09-02T17:59:36.176Z,97.70
2018-09-02T18:02:04.472Z,97.70
2018-09-02T18:04:32.709Z,97.70
2018-09-02T18:07:01.141Z,97.80
2018-09-02T18:09:29.384Z,97.90
2018-09-02T18:11:57.876Z,97.80
2018-09-02T18:14:26.197Z,97.90
2018-09-02T18:16:54.416Z,98.20
2018-09-02T18:19:22.897Z,97.90
2018-09-02T18:21:51.093Z,97.90
2018-09-02T18:24:19.366Z,98.00
2018-09-02T18:26:47.772Z,98.00
2018-09-02T18:29:15.963Z,98.00
2018-09-02T18:31:44.168Z,98.10
2018-09-02T18:34:12.527Z,98.10
2018-09-02T18:36:40.750Z,98.10
2018-09-02T18:39:10.617Z,98.10
2018-09-02T18:41:38.857Z,98.20
2018-09-02T18:44:07.200Z,98.20
2018-09-02T18:46:35.894Z,98.20
2018-09-02T18:49:04.888Z,98.20
2018-09-02T18:51:33.316Z,98.20
2018-09-02T18:54:01.551Z,98.20
2018-09-02T18:56:29.812Z,98.30
2018-09-02T18:58:58.263Z,98.60
2018-09-02T19:01:26.492Z,98.30
2018-09-02T19:03:54.696Z,98.40
2018-09-02T19:06:23.151Z,98.40
2018-09-02T19:08:51.355Z,98.80
2018-09-02T19:11:19.796Z,98.50
2018-09-02T19:13:48.003Z,98.50
2018-09-02T19:16:16.763Z,98.50
2018-09-02T19:18:45.144Z,98.60
2018-09-02T19:21:13.369Z,98.60
2018-09-02T19:23:41.920Z,98.60
2018-09-02T19:26:10.097Z,98.70
2018-09-02T19:28:38.308Z,98.60
2018-09-02T19:31:06.520Z,98.60
2018-09-02T19:33:34.816Z,99.00
2018-09-02T19:36:03.156Z,98.70
2018-09-02T19:38:31.498Z,98.70
2018-09-02T19:40:59.740Z,98.80
2018-09-02T19:43:27.968Z,98.80
2018-09-02T19:45:56.230Z,98.80
2018-09-02T19:48:24.445Z,98.90
2018-09-02T19:50:52.647Z,98.90
2018-09-02T19:53:20.925Z,98.90
2018-09-02T19:55:49.134Z,98.90
2018-09-02T19:58:17.396Z,99.00
2018-09-02T20:00:45.612Z,99.00
2018-09-02T20:03:13.812Z,99.00
2018-09-02T20:05:42.005Z,99.00
2018-09-02T20:08:10.246Z,99.00
2018-09-02T20:10:38.448Z,99.00
2018-09-02T20:13:06.712Z,99.00
2018-09-02T20:15:35.042Z,99.00
2018-09-02T20:18:03.299Z,99.10
2018-09-02T20:20:31.545Z,99.10
2018-09-02T20:22:59.852Z,99.10
2018-09-02T20:25:28.091Z,99.10
2018-09-02T20:27:56.377Z,99.20
2018-09-02T20:30:24.644Z,99.20
2018-09-02T20:32:52.877Z,99.20
2018-09-02T20:35:21.128Z,99.20
2018-09-02T20:37:49.332Z,99.20
2018-09-02T20:40:17.535Z,99.20
2018-09-02T20:42:45.771Z,99.20
2018-09-02T20:45:14.028Z,99.20
2018-09-02T20:47:42.256Z,99.30
2018-09-02T20:50:10.468Z,99.50
2018-09-02T20:52:39.004Z,99.30
2018-09-02T20:55:07.323Z,99.40
2018-09-02T20:57:35.547Z,99.60
2018-09-02T21:00:03.816Z,99.40
2018-09-02T21:02:32.305Z,99.40
2018-09-02T21:05:01.151Z,99.40
2018-09-02T21:07:29.579Z,99.40
2018-09-02T21:09:57.776Z,99.50
2018-09-02T21:12:25.990Z,99.50
2018-09-02T21:14:54.201Z,99.50
2018-09-02T21:17:22.459Z,99.50
2018-09-02T21:19:50.728Z,99.50
2018-09-02T21:22:18.919Z,99.50
2018-09-02T21:24:47.160Z,99.50
2018-09-02T21:27:15.354Z,99.60
2018-09-02T21:29:43.559Z,99.60
2018-09-02T21:32:11.772Z,99.60
2018-09-02T21:34:39.987Z,99.60
2018-09-02T21:37:08.263Z,99.60
2018-09-02T21:39:36.385Z,99.60
2018-09-02T21:42:04.696Z,99.60
2018-09-02T21:44:33.270Z,99.70
2018-09-02T21:47:01.524Z,99.70
2018-09-02T21:49:29.724Z,99.70
2018-09-02T21:51:58.321Z,99.70
2018-09-02T21:54:26.820Z,99.70
2018-09-02T21:56:55.016Z,99.70
2018-09-02T21:59:23.228Z,99.70
2018-09-02T22:01:51.743Z,99.70
2018-09-02T22:04:20.031Z,99.90
2018-09-02T22:06:48.238Z,99.70
2018-09-02T22:09:17.635Z,99.70
2018-09-02T22:11:45.883Z,99.70
2018-09-02T22:14:14.628Z,99.70
2018-09-02T22:16:43.483Z,99.80
2018-09-02T22:19:11.701Z,99.80
2018-09-02T22:21:40.315Z,99.80
2018-09-02T22:24:08.512Z,99.80
2018-09-02T22:26:36.773Z,99.80
2018-09-02T22:29:05.208Z,99.90
2018-09-02T22:31:33.764Z,99.80
2018-09-02T22:34:01.960Z,99.90
2018-09-02T22:36:30.568Z,99.90
2018-09-02T22:38:58.783Z,99.90
2018-09-02T22:41:26.980Z,99.90
2018-09-02T22:43:55.920Z,99.90
2018-09-02T22:46:24.112Z,99.90
2018-09-02T22:48:52.316Z,99.90
2018-09-02T22:51:20.903Z,99.90
2018-09-02T22:53:49.111Z,99.90
2018-09-02T22:56:17.323Z,99.90
2018-09-02T22:58:45.776Z,99.90
2018-09-02T23:01:14.810Z,99.90
2018-09-02T23:03:43.024Z,99.90
2018-09-02T23:06:11.371Z,99.90
2018-09-02T23:08:39.556Z,99.90
2018-09-02T23:11:08.038Z,99.90
2018-09-02T23:13:36.247Z,99.90
2018-09-02T23:16:04.472Z,99.90
2018-09-02T23:18:32.831Z,99.90
2018-09-02T23:21:01.052Z,99.90
2018-09-02T23:23:29.583Z,99.90
2018-09-02T23:25:57.792Z,99.90
2018-09-02T23:28:25.992Z,99.90
2018-09-02T23:30:54.554Z,99.90
2018-09-02T23:33:22.803Z,99.90
2018-09-02T23:35:51.000Z,99.90
2018-09-02T23:38:19.503Z,99.90
2018-09-02T23:40:47.715Z,99.90
2018-09-02T23:43:16.134Z,99.90
2018-09-02T23:45:44.716Z,99.90
2018-09-02T23:48:13.083Z,99.90
2018-09-02T23:50:41.330Z,99.90
2018-09-02T23:53:09.528Z,99.90
2018-09-02T23:55:38.150Z,99.90
2018-09-02T23:58:06.756Z,99.90
